sensor_id;sensor_type;location;lat;lon;timestamp;P1;durP1;ratioP1;P2;durP2;ratioP2
15454;SDS011;21057;51.024;7.540;2023-11-18T00:00:58;50.80;;;37.33;;
15454;SDS011;21057;51.024;7.540;2023-11-18T00:03:25;44.10;;;36.67;;
15454;SDS011;21057;51.024;7.540;2023-11-18T00:05:52;42.37;;;36.73;;
15454;SDS011;21057;51.024;7.540;2023-11-18T00:08:19;60.20;;;35.63;;
15454;SDS011;21057;51.024;7.540;2023-11-18T00:10:47;48.07;;;37.60;;
15454;SDS011;21057;51.024;7.540;2023-11-18T00:13:14;51.47;;;37.73;;
15454;SDS011;21057;51.024;7.540;2023-11-18T00:15:40;43.20;;;37.07;;
15454;SDS011;21057;51.024;7.540;2023-11-18T00:18:07;39.63;;;36.67;;
15454;SDS011;21057;51.024;7.540;2023-11-18T00:20:34;72.03;;;39.00;;
15454;SDS011;21057;51.024;7.540;2023-11-18T00:23:01;41.17;;;37.50;;
15454;SDS011;21057;51.024;7.540;2023-11-18T00:25:29;40.57;;;37.23;;
15454;SDS011;21057;51.024;7.540;2023-11-18T00:27:59;41.33;;;37.87;;
15454;SDS011;21057;51.024;7.540;2023-11-18T00:30:26;83.73;;;40.20;;
15454;SDS011;21057;51.024;7.540;2023-11-18T00:32:54;50.10;;;36.70;;
15454;SDS011;21057;51.024;7.540;2023-11-18T00:35:20;77.57;;;37.80;;
15454;SDS011;21057;51.024;7.540;2023-11-18T00:37:47;80.07;;;40.43;;
15454;SDS011;21057;51.024;7.540;2023-11-18T00:40:14;42.00;;;38.10;;
15454;SDS011;21057;51.024;7.540;2023-11-18T00:42:43;42.80;;;38.80;;
15454;SDS011;21057;51.024;7.540;2023-11-18T00:45:11;41.77;;;37.53;;
15454;SDS011;21057;51.024;7.540;2023-11-18T00:47:38;40.87;;;37.53;;
15454;SDS011;21057;51.024;7.540;2023-11-18T00:50:06;41.40;;;37.80;;
15454;SDS011;21057;51.024;7.540;2023-11-18T00:52:34;43.97;;;38.27;;
15454;SDS011;21057;51.024;7.540;2023-11-18T00:55:03;40.17;;;36.30;;
15454;SDS011;21057;51.024;7.540;2023-11-18T00:57:32;40.43;;;37.00;;
15454;SDS011;21057;51.024;7.540;2023-11-18T00:59:59;72.87;;;37.23;;
15454;SDS011;21057;51.024;7.540;2023-11-18T01:02:27;42.83;;;35.17;;
15454;SDS011;21057;51.024;7.540;2023-11-18T01:04:54;40.47;;;35.57;;
15454;SDS011;21057;51.024;7.540;2023-11-18T01:07:20;37.10;;;34.47;;
15454;SDS011;21057;51.024;7.540;2023-11-18T01:09:47;37.80;;;34.83;;
15454;SDS011;21057;51.024;7.540;2023-11-18T01:12:15;37.43;;;34.93;;
15454;SDS011;21057;51.024;7.540;2023-11-18T01:14:42;46.10;;;34.73;;
15454;SDS011;21057;51.024;7.540;2023-11-18T01:17:09;38.13;;;35.33;;
15454;SDS011;21057;51.024;7.540;2023-11-18T01:19:37;37.80;;;33.87;;
15454;SDS011;21057;51.024;7.540;2023-11-18T01:22:04;43.00;;;34.37;;
15454;SDS011;21057;51.024;7.540;2023-11-18T01:24:30;35.77;;;33.20;;
15454;SDS011;21057;51.024;7.540;2023-11-18T01:26:57;37.03;;;34.23;;
15454;SDS011;21057;51.024;7.540;2023-11-18T01:29:25;35.67;;;32.90;;
15454;SDS011;21057;51.024;7.540;2023-11-18T01:31:52;40.47;;;37.10;;
15454;SDS011;21057;51.024;7.540;2023-11-18T01:34:20;35.33;;;32.97;;
15454;SDS011;21057;51.024;7.540;2023-11-18T01:36:49;35.53;;;32.60;;
15454;SDS011;21057;51.024;7.540;2023-11-18T01:39:16;34.37;;;32.07;;
15454;SDS011;21057;51.024;7.540;2023-11-18T01:41:43;41.10;;;34.13;;
15454;SDS011;21057;51.024;7.540;2023-11-18T01:44:10;35.63;;;32.73;;
15454;SDS011;21057;51.024;7.540;2023-11-18T01:46:38;45.43;;;33.20;;
15454;SDS011;21057;51.024;7.540;2023-11-18T01:49:10;34.10;;;31.27;;
15454;SDS011;21057;51.024;7.540;2023-11-18T01:51:38;35.30;;;32.83;;
15454;SDS011;21057;51.024;7.540;2023-11-18T01:54:07;36.07;;;33.37;;
15454;SDS011;21057;51.024;7.540;2023-11-18T01:56:40;35.80;;;32.90;;
15454;SDS011;21057;51.024;7.540;2023-11-18T01:59:08;36.93;;;33.10;;
15454;SDS011;21057;51.024;7.540;2023-11-18T02:01:35;34.80;;;32.37;;
15454;SDS011;21057;51.024;7.540;2023-11-18T02:04:04;40.37;;;34.43;;
15454;SDS011;21057;51.024;7.540;2023-11-18T02:06:32;38.17;;;35.00;;
15454;SDS011;21057;51.024;7.540;2023-11-18T02:09:01;38.43;;;35.77;;
15454;SDS011;21057;51.024;7.540;2023-11-18T02:11:31;36.83;;;33.90;;
15454;SDS011;21057;51.024;7.540;2023-11-18T02:14:07;36.00;;;33.57;;
15454;SDS011;21057;51.024;7.540;2023-11-18T02:16:36;34.87;;;31.97;;
15454;SDS011;21057;51.024;7.540;2023-11-18T02:19:06;36.57;;;33.03;;
15454;SDS011;21057;51.024;7.540;2023-11-18T02:21:45;38.73;;;35.93;;
15454;SDS011;21057;51.024;7.540;2023-11-18T02:24:24;34.33;;;31.93;;
15454;SDS011;21057;51.024;7.540;2023-11-18T02:26:53;36.23;;;33.73;;
15454;SDS011;21057;51.024;7.540;2023-11-18T02:29:20;36.87;;;33.83;;
15454;SDS011;21057;51.024;7.540;2023-11-18T02:31:47;35.13;;;32.73;;
15454;SDS011;21057;51.024;7.540;2023-11-18T02:34:19;33.57;;;31.30;;
15454;SDS011;21057;51.024;7.540;2023-11-18T02:36:53;33.10;;;30.80;;
15454;SDS011;21057;51.024;7.540;2023-11-18T02:39:27;36.37;;;32.73;;
15454;SDS011;21057;51.024;7.540;2023-11-18T02:42:05;35.57;;;32.70;;
15454;SDS011;21057;51.024;7.540;2023-11-18T02:44:34;35.93;;;32.83;;
15454;SDS011;21057;51.024;7.540;2023-11-18T02:47:02;33.70;;;31.40;;
15454;SDS011;21057;51.024;7.540;2023-11-18T02:49:31;36.60;;;33.67;;
15454;SDS011;21057;51.024;7.540;2023-11-18T02:51:58;34.63;;;32.33;;
15454;SDS011;21057;51.024;7.540;2023-11-18T02:54:25;35.17;;;32.80;;
15454;SDS011;21057;51.024;7.540;2023-11-18T02:56:52;34.70;;;32.10;;
15454;SDS011;21057;51.024;7.540;2023-11-18T02:59:21;35.43;;;32.73;;
15454;SDS011;21057;51.024;7.540;2023-11-18T03:01:47;34.87;;;32.60;;
15454;SDS011;21057;51.024;7.540;2023-11-18T03:04:14;37.13;;;34.27;;
15454;SDS011;21057;51.024;7.540;2023-11-18T03:06:44;36.47;;;33.47;;
15454;SDS011;21057;51.024;7.540;2023-11-18T03:09:11;35.83;;;33.33;;
15454;SDS011;21057;51.024;7.540;2023-11-18T03:11:38;38.50;;;35.07;;
15454;SDS011;21057;51.024;7.540;2023-11-18T03:14:05;38.33;;;35.47;;
15454;SDS011;21057;51.024;7.540;2023-11-18T03:16:36;36.37;;;33.87;;
15454;SDS011;21057;51.024;7.540;2023-11-18T03:19:03;36.70;;;34.00;;
15454;SDS011;21057;51.024;7.540;2023-11-18T03:21:30;38.43;;;35.63;;
15454;SDS011;21057;51.024;7.540;2023-11-18T03:23:57;37.97;;;35.00;;
15454;SDS011;21057;51.024;7.540;2023-11-18T03:26:23;38.50;;;35.63;;
15454;SDS011;21057;51.024;7.540;2023-11-18T03:28:51;38.57;;;35.70;;
15454;SDS011;21057;51.024;7.540;2023-11-18T03:31:17;35.40;;;33.00;;
15454;SDS011;21057;51.024;7.540;2023-11-18T03:33:46;36.13;;;33.53;;
15454;SDS011;21057;51.024;7.540;2023-11-18T03:36:13;37.73;;;34.60;;
15454;SDS011;21057;51.024;7.540;2023-11-18T03:38:42;36.00;;;33.43;;
15454;SDS011;21057;51.024;7.540;2023-11-18T03:41:09;37.40;;;34.67;;
15454;SDS011;21057;51.024;7.540;2023-11-18T03:43:38;34.50;;;32.03;;
15454;SDS011;21057;51.024;7.540;2023-11-18T03:46:05;35.83;;;33.23;;
15454;SDS011;21057;51.024;7.540;2023-11-18T03:48:32;37.13;;;34.30;;
15454;SDS011;21057;51.024;7.540;2023-11-18T03:51:02;36.83;;;33.43;;
15454;SDS011;21057;51.024;7.540;2023-11-18T03:53:29;37.17;;;34.27;;
15454;SDS011;21057;51.024;7.540;2023-11-18T03:55:58;35.43;;;33.13;;
15454;SDS011;21057;51.024;7.540;2023-11-18T03:58:25;36.07;;;33.53;;
15454;SDS011;21057;51.024;7.540;2023-11-18T04:00:52;37.17;;;34.57;;
15454;SDS011;21057;51.024;7.540;2023-11-18T04:03:19;36.23;;;33.20;;
15454;SDS011;21057;51.024;7.540;2023-11-18T04:05:46;39.60;;;36.47;;
15454;SDS011;21057;51.024;7.540;2023-11-18T04:08:14;38.00;;;35.07;;
15454;SDS011;21057;51.024;7.540;2023-11-18T04:10:41;37.63;;;34.27;;
15454;SDS011;21057;51.024;7.540;2023-11-18T04:13:07;36.63;;;33.70;;
15454;SDS011;21057;51.024;7.540;2023-11-18T04:15:34;39.40;;;36.50;;
15454;SDS011;21057;51.024;7.540;2023-11-18T04:18:01;37.97;;;34.63;;
15454;SDS011;21057;51.024;7.540;2023-11-18T04:20:28;35.80;;;33.27;;
15454;SDS011;21057;51.024;7.540;2023-11-18T04:22:55;36.50;;;33.87;;
15454;SDS011;21057;51.024;7.540;2023-11-18T04:25:23;38.07;;;35.33;;
15454;SDS011;21057;51.024;7.540;2023-11-18T04:27:50;39.73;;;36.27;;
15454;SDS011;21057;51.024;7.540;2023-11-18T04:30:17;36.57;;;33.93;;
15454;SDS011;21057;51.024;7.540;2023-11-18T04:32:44;35.67;;;33.37;;
15454;SDS011;21057;51.024;7.540;2023-11-18T04:35:11;37.20;;;34.50;;
15454;SDS011;21057;51.024;7.540;2023-11-18T04:37:38;38.97;;;35.60;;
15454;SDS011;21057;51.024;7.540;2023-11-18T04:40:08;37.00;;;34.60;;
15454;SDS011;21057;51.024;7.540;2023-11-18T04:42:37;36.93;;;34.33;;
15454;SDS011;21057;51.024;7.540;2023-11-18T04:45:05;37.37;;;34.73;;
15454;SDS011;21057;51.024;7.540;2023-11-18T04:47:34;37.87;;;35.13;;
15454;SDS011;21057;51.024;7.540;2023-11-18T04:50:01;37.97;;;35.47;;
15454;SDS011;21057;51.024;7.540;2023-11-18T04:52:29;37.17;;;34.47;;
15454;SDS011;21057;51.024;7.540;2023-11-18T04:54:57;37.30;;;34.00;;
15454;SDS011;21057;51.024;7.540;2023-11-18T04:57:25;37.20;;;34.53;;
15454;SDS011;21057;51.024;7.540;2023-11-18T04:59:53;37.70;;;35.03;;
15454;SDS011;21057;51.024;7.540;2023-11-18T05:02:20;37.70;;;34.87;;
15454;SDS011;21057;51.024;7.540;2023-11-18T05:04:48;41.07;;;37.43;;
15454;SDS011;21057;51.024;7.540;2023-11-18T05:07:15;36.87;;;34.00;;
15454;SDS011;21057;51.024;7.540;2023-11-18T05:09:42;37.60;;;34.97;;
15454;SDS011;21057;51.024;7.540;2023-11-18T05:12:09;38.00;;;35.50;;
15454;SDS011;21057;51.024;7.540;2023-11-18T05:14:36;38.83;;;35.93;;
15454;SDS011;21057;51.024;7.540;2023-11-18T05:17:04;35.53;;;33.20;;
15454;SDS011;21057;51.024;7.540;2023-11-18T05:19:30;37.30;;;34.77;;
15454;SDS011;21057;51.024;7.540;2023-11-18T05:21:57;37.47;;;34.83;;
15454;SDS011;21057;51.024;7.540;2023-11-18T05:24:25;38.93;;;36.13;;
15454;SDS011;21057;51.024;7.540;2023-11-18T05:26:51;36.80;;;34.13;;
15454;SDS011;21057;51.024;7.540;2023-11-18T05:29:18;37.53;;;34.90;;
15454;SDS011;21057;51.024;7.540;2023-11-18T05:31:46;37.33;;;34.73;;
15454;SDS011;21057;51.024;7.540;2023-11-18T05:34:14;35.13;;;32.43;;
15454;SDS011;21057;51.024;7.540;2023-11-18T05:36:41;35.17;;;31.97;;
15454;SDS011;21057;51.024;7.540;2023-11-18T05:39:07;35.67;;;33.20;;
15454;SDS011;21057;51.024;7.540;2023-11-18T05:41:35;36.00;;;33.33;;
15454;SDS011;21057;51.024;7.540;2023-11-18T05:44:05;37.23;;;34.07;;
15454;SDS011;21057;51.024;7.540;2023-11-18T05:46:34;34.87;;;32.07;;
15454;SDS011;21057;51.024;7.540;2023-11-18T05:49:01;37.17;;;34.27;;
15454;SDS011;21057;51.024;7.540;2023-11-18T05:51:33;35.10;;;32.57;;
15454;SDS011;21057;51.024;7.540;2023-11-18T05:54:00;36.40;;;33.80;;
15454;SDS011;21057;51.024;7.540;2023-11-18T05:56:27;39.33;;;36.23;;
15454;SDS011;21057;51.024;7.540;2023-11-18T05:58:54;39.30;;;36.60;;
15454;SDS011;21057;51.024;7.540;2023-11-18T06:01:21;38.80;;;36.07;;
15454;SDS011;21057;51.024;7.540;2023-11-18T06:03:48;37.37;;;34.80;;
15454;SDS011;21057;51.024;7.540;2023-11-18T06:06:15;38.20;;;35.40;;
15454;SDS011;21057;51.024;7.540;2023-11-18T06:08:44;37.27;;;34.40;;
15454;SDS011;21057;51.024;7.540;2023-11-18T06:11:12;38.90;;;36.10;;
15454;SDS011;21057;51.024;7.540;2023-11-18T06:13:40;38.47;;;35.33;;
15454;SDS011;21057;51.024;7.540;2023-11-18T06:16:14;39.63;;;36.70;;
15454;SDS011;21057;51.024;7.540;2023-11-18T06:18:42;37.17;;;34.37;;
15454;SDS011;21057;51.024;7.540;2023-11-18T06:21:13;37.90;;;35.00;;
15454;SDS011;21057;51.024;7.540;2023-11-18T06:23:40;37.57;;;34.97;;
15454;SDS011;21057;51.024;7.540;2023-11-18T06:26:09;38.60;;;35.83;;
15454;SDS011;21057;51.024;7.540;2023-11-18T06:28:37;38.03;;;35.63;;
15454;SDS011;21057;51.024;7.540;2023-11-18T06:31:05;38.10;;;35.50;;
15454;SDS011;21057;51.024;7.540;2023-11-18T06:33:37;40.70;;;37.80;;
15454;SDS011;21057;51.024;7.540;2023-11-18T06:36:08;39.37;;;36.27;;
15454;SDS011;21057;51.024;7.540;2023-11-18T06:38:36;37.97;;;35.47;;
15454;SDS011;21057;51.024;7.540;2023-11-18T06:41:03;38.57;;;35.73;;
15454;SDS011;21057;51.024;7.540;2023-11-18T06:43:35;39.87;;;36.73;;
15454;SDS011;21057;51.024;7.540;2023-11-18T06:46:16;35.67;;;33.17;;
15454;SDS011;21057;51.024;7.540;2023-11-18T06:48:45;39.13;;;36.03;;
15454;SDS011;21057;51.024;7.540;2023-11-18T06:51:13;38.90;;;35.87;;
15454;SDS011;21057;51.024;7.540;2023-11-18T06:53:40;41.13;;;37.77;;
15454;SDS011;21057;51.024;7.540;2023-11-18T06:56:08;37.97;;;35.23;;
15454;SDS011;21057;51.024;7.540;2023-11-18T06:58:37;38.53;;;35.70;;
15454;SDS011;21057;51.024;7.540;2023-11-18T07:01:04;40.17;;;37.27;;
15454;SDS011;21057;51.024;7.540;2023-11-18T07:03:31;37.73;;;34.90;;
15454;SDS011;21057;51.024;7.540;2023-11-18T07:05:58;41.97;;;38.43;;
15454;SDS011;21057;51.024;7.540;2023-11-18T07:08:25;40.60;;;37.50;;
15454;SDS011;21057;51.024;7.540;2023-11-18T07:10:52;40.50;;;37.30;;
15454;SDS011;21057;51.024;7.540;2023-11-18T07:13:19;40.13;;;37.23;;
15454;SDS011;21057;51.024;7.540;2023-11-18T07:15:49;39.53;;;36.33;;
15454;SDS011;21057;51.024;7.540;2023-11-18T07:18:17;40.00;;;36.77;;
15454;SDS011;21057;51.024;7.540;2023-11-18T07:20:47;38.63;;;35.63;;
15454;SDS011;21057;51.024;7.540;2023-11-18T07:23:14;39.23;;;36.07;;
15454;SDS011;21057;51.024;7.540;2023-11-18T07:25:43;38.43;;;35.83;;
15454;SDS011;21057;51.024;7.540;2023-11-18T07:28:10;39.57;;;36.37;;
15454;SDS011;21057;51.024;7.540;2023-11-18T07:30:40;40.27;;;36.40;;
15454;SDS011;21057;51.024;7.540;2023-11-18T07:33:09;37.73;;;35.10;;
15454;SDS011;21057;51.024;7.540;2023-11-18T07:35:36;41.30;;;37.83;;
15454;SDS011;21057;51.024;7.540;2023-11-18T07:38:03;38.40;;;35.60;;
15454;SDS011;21057;51.024;7.540;2023-11-18T07:40:32;39.50;;;36.50;;
15454;SDS011;21057;51.024;7.540;2023-11-18T07:42:59;39.30;;;36.30;;
15454;SDS011;21057;51.024;7.540;2023-11-18T07:45:27;39.00;;;36.00;;
15454;SDS011;21057;51.024;7.540;2023-11-18T07:47:54;39.37;;;36.17;;
15454;SDS011;21057;51.024;7.540;2023-11-18T07:50:22;39.83;;;37.00;;
15454;SDS011;21057;51.024;7.540;2023-11-18T07:52:49;39.27;;;36.23;;
15454;SDS011;21057;51.024;7.540;2023-11-18T07:55:16;40.57;;;37.33;;
15454;SDS011;21057;51.024;7.540;2023-11-18T07:57:43;41.00;;;37.77;;
15454;SDS011;21057;51.024;7.540;2023-11-18T08:00:11;39.83;;;37.10;;
15454;SDS011;21057;51.024;7.540;2023-11-18T08:02:40;40.90;;;37.60;;
15454;SDS011;21057;51.024;7.540;2023-11-18T08:05:07;37.33;;;34.30;;
15454;SDS011;21057;51.024;7.540;2023-11-18T08:07:36;38.67;;;35.63;;
15454;SDS011;21057;51.024;7.540;2023-11-18T08:10:03;40.20;;;37.27;;
15454;SDS011;21057;51.024;7.540;2023-11-18T08:12:30;39.30;;;36.43;;
15454;SDS011;21057;51.024;7.540;2023-11-18T08:14:58;36.90;;;34.40;;
15454;SDS011;21057;51.024;7.540;2023-11-18T08:17:26;38.67;;;35.57;;
15454;SDS011;21057;51.024;7.540;2023-11-18T08:19:53;39.37;;;36.57;;
15454;SDS011;21057;51.024;7.540;2023-11-18T08:22:21;38.70;;;35.70;;
15454;SDS011;21057;51.024;7.540;2023-11-18T08:24:49;39.63;;;36.60;;
15454;SDS011;21057;51.024;7.540;2023-11-18T08:27:16;41.10;;;37.87;;
15454;SDS011;21057;51.024;7.540;2023-11-18T08:29:44;41.53;;;38.17;;
15454;SDS011;21057;51.024;7.540;2023-11-18T08:32:13;39.30;;;36.13;;
15454;SDS011;21057;51.024;7.540;2023-11-18T08:34:40;39.27;;;36.50;;
15454;SDS011;21057;51.024;7.540;2023-11-18T08:37:07;39.13;;;36.00;;
15454;SDS011;21057;51.024;7.540;2023-11-18T08:39:34;40.00;;;37.10;;
15454;SDS011;21057;51.024;7.540;2023-11-18T08:42:02;38.30;;;35.70;;
15454;SDS011;21057;51.024;7.540;2023-11-18T08:44:32;42.07;;;38.87;;
15454;SDS011;21057;51.024;7.540;2023-11-18T08:46:59;42.93;;;39.00;;
15454;SDS011;21057;51.024;7.540;2023-11-18T08:49:31;41.77;;;38.47;;
15454;SDS011;21057;51.024;7.540;2023-11-18T08:51:59;43.07;;;40.03;;
15454;SDS011;21057;51.024;7.540;2023-11-18T08:54:26;41.47;;;38.03;;
15454;SDS011;21057;51.024;7.540;2023-11-18T08:57:03;41.93;;;38.77;;
15454;SDS011;21057;51.024;7.540;2023-11-18T08:59:44;41.40;;;38.03;;
15454;SDS011;21057;51.024;7.540;2023-11-18T09:02:11;42.17;;;39.13;;
15454;SDS011;21057;51.024;7.540;2023-11-18T09:04:40;44.10;;;40.33;;
15454;SDS011;21057;51.024;7.540;2023-11-18T09:07:08;43.70;;;40.40;;
15454;SDS011;21057;51.024;7.540;2023-11-18T09:09:35;42.67;;;39.07;;
15454;SDS011;21057;51.024;7.540;2023-11-18T09:12:03;42.13;;;38.93;;
15454;SDS011;21057;51.024;7.540;2023-11-18T09:14:33;40.80;;;37.53;;
15454;SDS011;21057;51.024;7.540;2023-11-18T09:17:00;43.80;;;40.17;;
15454;SDS011;21057;51.024;7.540;2023-11-18T09:19:27;42.00;;;38.83;;
15454;SDS011;21057;51.024;7.540;2023-11-18T09:21:57;42.60;;;39.20;;
15454;SDS011;21057;51.024;7.540;2023-11-18T09:24:24;41.07;;;38.07;;
15454;SDS011;21057;51.024;7.540;2023-11-18T09:26:50;40.67;;;37.60;;
15454;SDS011;21057;51.024;7.540;2023-11-18T09:29:21;39.97;;;36.97;;
15454;SDS011;21057;51.024;7.540;2023-11-18T09:31:49;40.00;;;37.00;;
15454;SDS011;21057;51.024;7.540;2023-11-18T09:34:17;40.77;;;37.67;;
15454;SDS011;21057;51.024;7.540;2023-11-18T09:36:52;42.87;;;39.80;;
15454;SDS011;21057;51.024;7.540;2023-11-18T09:39:19;42.07;;;38.73;;
15454;SDS011;21057;51.024;7.540;2023-11-18T09:42:02;40.73;;;37.37;;
15454;SDS011;21057;51.024;7.540;2023-11-18T09:44:35;40.50;;;37.50;;
15454;SDS011;21057;51.024;7.540;2023-11-18T09:47:03;40.17;;;36.87;;
15454;SDS011;21057;51.024;7.540;2023-11-18T09:49:37;42.10;;;38.70;;
15454;SDS011;21057;51.024;7.540;2023-11-18T09:52:06;41.13;;;37.73;;
15454;SDS011;21057;51.024;7.540;2023-11-18T09:54:34;40.93;;;38.03;;
15454;SDS011;21057;51.024;7.540;2023-11-18T09:57:08;43.67;;;40.50;;
15454;SDS011;21057;51.024;7.540;2023-11-18T09:59:45;42.33;;;39.20;;
15454;SDS011;21057;51.024;7.540;2023-11-18T10:02:19;44.10;;;40.83;;
15454;SDS011;21057;51.024;7.540;2023-11-18T10:04:48;41.00;;;37.93;;
15454;SDS011;21057;51.024;7.540;2023-11-18T10:07:22;43.37;;;40.33;;
15454;SDS011;21057;51.024;7.540;2023-11-18T10:09:53;40.63;;;37.60;;
15454;SDS011;21057;51.024;7.540;2023-11-18T10:12:22;40.43;;;37.67;;
15454;SDS011;21057;51.024;7.540;2023-11-18T10:14:53;43.33;;;40.03;;
15454;SDS011;21057;51.024;7.540;2023-11-18T10:17:21;40.23;;;37.23;;
15454;SDS011;21057;51.024;7.540;2023-11-18T10:19:54;40.67;;;37.53;;
15454;SDS011;21057;51.024;7.540;2023-11-18T10:22:25;43.47;;;40.03;;
15454;SDS011;21057;51.024;7.540;2023-11-18T10:24:53;39.83;;;36.97;;
15454;SDS011;21057;51.024;7.540;2023-11-18T10:27:21;40.47;;;37.70;;
15454;SDS011;21057;51.024;7.540;2023-11-18T10:29:50;41.23;;;38.33;;
15454;SDS011;21057;51.024;7.540;2023-11-18T10:32:22;40.87;;;37.87;;
15454;SDS011;21057;51.024;7.540;2023-11-18T10:34:53;43.43;;;39.60;;
15454;SDS011;21057;51.024;7.540;2023-11-18T10:37:21;40.50;;;37.90;;
15454;SDS011;21057;51.024;7.540;2023-11-18T10:39:49;42.53;;;39.50;;
15454;SDS011;21057;51.024;7.540;2023-11-18T10:42:16;41.83;;;38.63;;
15454;SDS011;21057;51.024;7.540;2023-11-18T10:44:54;42.33;;;39.33;;
15454;SDS011;21057;51.024;7.540;2023-11-18T10:47:24;40.93;;;38.17;;
15454;SDS011;21057;51.024;7.540;2023-11-18T10:49:52;41.60;;;38.83;;
15454;SDS011;21057;51.024;7.540;2023-11-18T10:52:21;42.57;;;39.40;;
15454;SDS011;21057;51.024;7.540;2023-11-18T10:54:51;43.87;;;40.50;;
15454;SDS011;21057;51.024;7.540;2023-11-18T10:57:19;42.13;;;39.13;;
15454;SDS011;21057;51.024;7.540;2023-11-18T10:59:59;43.67;;;40.50;;
15454;SDS011;21057;51.024;7.540;2023-11-18T11:02:29;43.90;;;40.93;;
15454;SDS011;21057;51.024;7.540;2023-11-18T11:05:00;42.77;;;39.67;;
15454;SDS011;21057;51.024;7.540;2023-11-18T11:07:27;42.37;;;39.30;;
15454;SDS011;21057;51.024;7.540;2023-11-18T11:09:55;43.40;;;40.43;;
15454;SDS011;21057;51.024;7.540;2023-11-18T11:12:22;43.47;;;40.40;;
15454;SDS011;21057;51.024;7.540;2023-11-18T11:14:54;42.90;;;40.00;;
15454;SDS011;21057;51.024;7.540;2023-11-18T11:17:29;40.70;;;38.17;;
15454;SDS011;21057;51.024;7.540;2023-11-18T11:19:59;41.43;;;38.60;;
15454;SDS011;21057;51.024;7.540;2023-11-18T11:22:37;40.27;;;37.60;;
15454;SDS011;21057;51.024;7.540;2023-11-18T11:25:09;39.40;;;36.80;;
15454;SDS011;21057;51.024;7.540;2023-11-18T11:30:40;39.00;;;36.60;;
15454;SDS011;21057;51.024;7.540;2023-11-18T11:33:13;41.40;;;38.47;;
15454;SDS011;21057;51.024;7.540;2023-11-18T11:35:46;41.07;;;38.30;;
15454;SDS011;21057;51.024;7.540;2023-11-18T11:38:22;39.97;;;37.40;;
15454;SDS011;21057;51.024;7.540;2023-11-18T11:40:49;37.23;;;34.70;;
15454;SDS011;21057;51.024;7.540;2023-11-18T11:43:19;39.00;;;36.57;;
15454;SDS011;21057;51.024;7.540;2023-11-18T11:45:48;40.17;;;37.27;;
15454;SDS011;21057;51.024;7.540;2023-11-18T11:48:19;38.17;;;35.67;;
15454;SDS011;21057;51.024;7.540;2023-11-18T11:50:55;41.37;;;38.37;;
15454;SDS011;21057;51.024;7.540;2023-11-18T11:53:32;40.70;;;37.70;;
15454;SDS011;21057;51.024;7.540;2023-11-18T11:56:04;39.60;;;36.83;;
15454;SDS011;21057;51.024;7.540;2023-11-18T11:58:33;37.30;;;34.70;;
15454;SDS011;21057;51.024;7.540;2023-11-18T12:01:14;36.70;;;34.17;;
15454;SDS011;21057;51.024;7.540;2023-11-18T12:03:45;38.73;;;36.00;;
15454;SDS011;21057;51.024;7.540;2023-11-18T12:06:17;39.33;;;36.63;;
15454;SDS011;21057;51.024;7.540;2023-11-18T12:08:48;39.90;;;36.97;;
15454;SDS011;21057;51.024;7.540;2023-11-18T12:11:17;39.37;;;36.47;;
15454;SDS011;21057;51.024;7.540;2023-11-18T12:13:59;40.10;;;37.50;;
15454;SDS011;21057;51.024;7.540;2023-11-18T12:19:33;40.40;;;37.43;;
15454;SDS011;21057;51.024;7.540;2023-11-18T12:22:09;41.10;;;38.10;;
15454;SDS011;21057;51.024;7.540;2023-11-18T12:24:43;43.17;;;40.07;;
15454;SDS011;21057;51.024;7.540;2023-11-18T12:27:42;40.37;;;37.57;;
15454;SDS011;21057;51.024;7.540;2023-11-18T12:33:08;39.90;;;36.73;;
15454;SDS011;21057;51.024;7.540;2023-11-18T12:35:37;39.87;;;37.17;;
15454;SDS011;21057;51.024;7.540;2023-11-18T12:41:18;37.37;;;34.77;;
15454;SDS011;21057;51.024;7.540;2023-11-18T12:44:05;41.47;;;38.37;;
15454;SDS011;21057;51.024;7.540;2023-11-18T12:46:52;39.57;;;36.83;;
15454;SDS011;21057;51.024;7.540;2023-11-18T12:49:22;40.60;;;37.60;;
15454;SDS011;21057;51.024;7.540;2023-11-18T12:51:50;40.10;;;37.30;;
15454;SDS011;21057;51.024;7.540;2023-11-18T12:54:18;42.33;;;39.20;;
15454;SDS011;21057;51.024;7.540;2023-11-18T12:56:46;40.60;;;37.73;;
15454;SDS011;21057;51.024;7.540;2023-11-18T12:59:15;40.63;;;37.47;;
15454;SDS011;21057;51.024;7.540;2023-11-18T13:01:44;41.43;;;38.33;;
15454;SDS011;21057;51.024;7.540;2023-11-18T13:04:17;41.50;;;38.50;;
15454;SDS011;21057;51.024;7.540;2023-11-18T13:06:47;40.77;;;38.03;;
15454;SDS011;21057;51.024;7.540;2023-11-18T13:09:16;42.73;;;39.93;;
15454;SDS011;21057;51.024;7.540;2023-11-18T13:11:52;40.07;;;37.10;;
15454;SDS011;21057;51.024;7.540;2023-11-18T13:14:22;43.60;;;40.30;;
15454;SDS011;21057;51.024;7.540;2023-11-18T13:16:52;40.37;;;37.17;;
15454;SDS011;21057;51.024;7.540;2023-11-18T13:19:24;41.33;;;38.63;;
15454;SDS011;21057;51.024;7.540;2023-11-18T13:21:55;40.17;;;37.47;;
15454;SDS011;21057;51.024;7.540;2023-11-18T13:24:23;40.10;;;37.47;;
15454;SDS011;21057;51.024;7.540;2023-11-18T13:26:51;41.00;;;38.17;;
15454;SDS011;21057;51.024;7.540;2023-11-18T13:29:20;40.27;;;37.67;;
15454;SDS011;21057;51.024;7.540;2023-11-18T13:31:48;42.30;;;39.50;;
15454;SDS011;21057;51.024;7.540;2023-11-18T13:34:16;40.27;;;37.37;;
15454;SDS011;21057;51.024;7.540;2023-11-18T13:36:43;40.20;;;37.30;;
15454;SDS011;21057;51.024;7.540;2023-11-18T13:39:16;41.27;;;38.47;;
15454;SDS011;21057;51.024;7.540;2023-11-18T13:41:43;41.17;;;38.43;;
15454;SDS011;21057;51.024;7.540;2023-11-18T13:44:11;41.20;;;38.50;;
15454;SDS011;21057;51.024;7.540;2023-11-18T13:46:38;41.90;;;39.20;;
15454;SDS011;21057;51.024;7.540;2023-11-18T13:49:06;38.57;;;36.03;;
15454;SDS011;21057;51.024;7.540;2023-11-18T13:51:33;41.93;;;39.23;;
15454;SDS011;21057;51.024;7.540;2023-11-18T13:54:02;40.57;;;37.87;;
15454;SDS011;21057;51.024;7.540;2023-11-18T13:56:31;43.00;;;39.97;;
15454;SDS011;21057;51.024;7.540;2023-11-18T13:58:58;41.83;;;38.93;;
15454;SDS011;21057;51.024;7.540;2023-11-18T14:01:25;42.07;;;39.40;;
15454;SDS011;21057;51.024;7.540;2023-11-18T14:03:53;42.13;;;39.10;;
15454;SDS011;21057;51.024;7.540;2023-11-18T14:06:21;44.63;;;41.60;;
15454;SDS011;21057;51.024;7.540;2023-11-18T14:08:48;39.07;;;36.40;;
15454;SDS011;21057;51.024;7.540;2023-11-18T14:11:15;38.73;;;36.10;;
15454;SDS011;21057;51.024;7.540;2023-11-18T14:13:44;40.07;;;37.33;;
15454;SDS011;21057;51.024;7.540;2023-11-18T14:16:11;38.13;;;35.63;;
15454;SDS011;21057;51.024;7.540;2023-11-18T14:18:41;37.27;;;34.87;;
15454;SDS011;21057;51.024;7.540;2023-11-18T14:21:08;39.43;;;36.63;;
15454;SDS011;21057;51.024;7.540;2023-11-18T14:23:36;37.60;;;34.50;;
15454;SDS011;21057;51.024;7.540;2023-11-18T14:26:05;40.13;;;36.43;;
15454;SDS011;21057;51.024;7.540;2023-11-18T14:28:32;37.80;;;35.30;;
15454;SDS011;21057;51.024;7.540;2023-11-18T14:31:01;38.23;;;35.53;;
15454;SDS011;21057;51.024;7.540;2023-11-18T14:33:29;40.90;;;38.37;;
15454;SDS011;21057;51.024;7.540;2023-11-18T14:35:58;39.53;;;36.60;;
15454;SDS011;21057;51.024;7.540;2023-11-18T14:38:26;39.20;;;36.63;;
15454;SDS011;21057;51.024;7.540;2023-11-18T14:40:52;39.57;;;36.97;;
15454;SDS011;21057;51.024;7.540;2023-11-18T14:43:19;37.23;;;34.77;;